createdAt,value
2018-07-09T00:01:02.741Z,4.80
2018-07-09T00:03:31.020Z,4.60
2018-07-09T00:05:59.292Z,4.40
2018-07-09T00:08:27.552Z,4.60
2018-07-09T00:10:58.653Z,4.63
2018-07-09T00:13:27.477Z,4.30
2018-07-09T00:15:56.033Z,4.63
2018-07-09T00:18:24.321Z,5.20
2018-07-09T00:20:52.604Z,4.40
2018-07-09T00:23:20.860Z,4.67
2018-07-09T00:25:49.933Z,4.57
2018-07-09T00:28:18.941Z,4.63
2018-07-09T00:30:47.278Z,4.80
2018-07-09T00:33:16.208Z,4.23
2018-07-09T00:35:44.589Z,4.17
2018-07-09T00:38:12.880Z,4.23
2018-07-09T00:40:41.139Z,4.27
2018-07-09T00:43:09.400Z,4.87
2018-07-09T00:45:37.665Z,4.70
2018-07-09T00:48:06.092Z,4.87
2018-07-09T00:50:34.365Z,4.80
2018-07-09T00:53:02.636Z,4.83
2018-07-09T00:55:31.067Z,4.63
2018-07-09T00:57:59.397Z,4.30
2018-07-09T01:00:27.653Z,4.67
2018-07-09T01:02:55.913Z,4.57
2018-07-09T01:05:24.204Z,4.30
2018-07-09T01:07:52.473Z,4.43
2018-07-09T01:10:20.737Z,4.37
2018-07-09T01:12:48.976Z,4.37
2018-07-09T01:15:17.224Z,4.47
2018-07-09T01:17:45.500Z,4.80
2018-07-09T01:20:13.787Z,4.30
2018-07-09T01:22:42.060Z,3.73
2018-07-09T01:25:10.380Z,3.80
2018-07-09T01:27:38.693Z,3.90
2018-07-09T01:30:12.225Z,4.00
2018-07-09T01:32:40.793Z,3.80
2018-07-09T01:35:09.988Z,3.60
2018-07-09T01:37:38.983Z,4.10
2018-07-09T01:40:07.323Z,3.80
2018-07-09T01:42:35.811Z,3.83
2018-07-09T01:45:04.163Z,3.60
2018-07-09T01:47:32.474Z,3.53
2018-07-09T01:50:00.848Z,4.40
2018-07-09T01:52:29.324Z,3.83
2018-07-09T01:54:57.571Z,4.20
2018-07-09T01:57:25.825Z,3.90
2018-07-09T01:59:54.221Z,3.80
2018-07-09T02:02:22.487Z,3.67
2018-07-09T02:04:50.765Z,3.97
2018-07-09T02:07:19.069Z,3.23
2018-07-09T02:09:47.356Z,3.70
2018-07-09T02:12:15.644Z,3.80
2018-07-09T02:14:44.093Z,3.60
2018-07-09T02:17:12.351Z,3.47
2018-07-09T02:19:40.612Z,4.33
2018-07-09T02:22:08.864Z,3.90
2018-07-09T02:24:37.119Z,3.70
2018-07-09T02:27:05.432Z,4.50
2018-07-09T02:29:33.691Z,4.17
2018-07-09T02:32:01.966Z,4.10
2018-07-09T02:34:30.236Z,4.17
2018-07-09T02:36:58.522Z,3.63
2018-07-09T02:39:26.788Z,4.03
2018-07-09T02:41:55.152Z,3.90
2018-07-09T02:44:23.592Z,3.63
2018-07-09T02:46:51.913Z,3.67
2018-07-09T02:49:20.200Z,3.77
2018-07-09T02:51:48.688Z,3.50
2018-07-09T02:54:17.292Z,3.57
2018-07-09T02:56:45.692Z,4.07
2018-07-09T02:59:13.981Z,3.73
2018-07-09T03:01:42.240Z,3.77
2018-07-09T03:04:10.512Z,3.57
2018-07-09T03:06:38.763Z,4.00
2018-07-09T03:09:07.385Z,3.67
2018-07-09T03:11:35.942Z,3.90
2018-07-09T03:14:04.213Z,3.37
2018-07-09T03:16:32.464Z,3.33
2018-07-09T03:19:00.796Z,3.80
2018-07-09T03:21:28.996Z,3.97
2018-07-09T03:23:57.260Z,3.90
2018-07-09T03:26:25.541Z,4.00
2018-07-09T03:28:53.829Z,3.90
2018-07-09T03:31:22.145Z,4.00
2018-07-09T03:33:50.559Z,4.43
2018-07-09T03:36:18.800Z,4.33
2018-07-09T03:38:47.055Z,4.30
2018-07-09T03:41:15.317Z,4.03
2018-07-09T03:43:43.573Z,4.40
2018-07-09T03:46:11.825Z,4.20
2018-07-09T03:48:40.080Z,4.50
2018-07-09T03:51:08.367Z,4.60
2018-07-09T03:53:36.615Z,4.50
2018-07-09T03:56:04.879Z,4.77
2018-07-09T03:58:33.115Z,4.70
2018-07-09T04:01:01.377Z,4.23
2018-07-09T04:03:29.624Z,4.40
2018-07-09T04:05:57.953Z,4.87
2018-07-09T04:08:26.207Z,4.43
2018-07-09T04:10:54.464Z,4.57
2018-07-09T04:13:22.889Z,5.00
2018-07-09T04:15:51.131Z,4.57
2018-07-09T04:18:22.779Z,4.20
2018-07-09T04:20:57.717Z,4.40
2018-07-09T04:23:25.908Z,4.57
2018-07-09T04:25:54.168Z,4.47
2018-07-09T04:28:22.592Z,4.77
2018-07-09T04:30:50.936Z,4.97
2018-07-09T04:33:19.662Z,4.57
2018-07-09T04:35:47.967Z,4.90
2018-07-09T04:38:16.247Z,4.70
2018-07-09T04:40:44.516Z,4.73
2018-07-09T04:43:12.847Z,4.27
2018-07-09T04:45:41.093Z,5.03
2018-07-09T04:48:09.360Z,4.80
2018-07-09T04:50:37.599Z,4.83
2018-07-09T04:53:05.856Z,4.90
2018-07-09T04:55:34.098Z,4.47
2018-07-09T04:58:02.366Z,4.47
2018-07-09T05:00:30.615Z,4.70
2018-07-09T05:02:58.859Z,4.90
2018-07-09T05:05:27.108Z,5.07
2018-07-09T05:07:55.377Z,4.93
2018-07-09T05:10:23.659Z,5.03
2018-07-09T05:12:51.903Z,5.10
2018-07-09T05:15:20.174Z,5.27
2018-07-09T05:17:48.458Z,5.00
2018-07-09T05:20:16.732Z,4.73
2018-07-09T05:22:45.029Z,4.90
2018-07-09T05:25:13.281Z,4.77
2018-07-09T05:27:41.566Z,4.63
2018-07-09T05:30:09.832Z,5.50
2018-07-09T05:32:38.093Z,5.63
2018-07-09T05:35:06.736Z,5.17
2018-07-09T05:37:35.000Z,5.10
2018-07-09T05:40:03.399Z,5.50
2018-07-09T05:42:31.616Z,5.23
2018-07-09T05:44:59.877Z,5.10
2018-07-09T05:47:28.210Z,5.57
2018-07-09T05:49:56.661Z,5.80
2018-07-09T05:52:24.921Z,5.63
2018-07-09T05:54:53.184Z,5.53
2018-07-09T05:57:21.489Z,5.53
2018-07-09T05:59:49.744Z,4.90
2018-07-09T06:02:18.017Z,5.20
2018-07-09T06:04:46.295Z,5.47
2018-07-09T06:07:14.552Z,5.30
2018-07-09T06:09:42.828Z,5.30
2018-07-09T06:12:11.144Z,5.40
2018-07-09T06:14:39.416Z,5.10
2018-07-09T06:17:08.140Z,4.60
2018-07-09T06:19:36.461Z,5.30
2018-07-09T06:22:04.707Z,4.93
2018-07-09T06:24:33.080Z,5.10
2018-07-09T06:27:01.337Z,5.13
2018-07-09T06:29:29.620Z,4.67
2018-07-09T06:31:57.893Z,4.90
2018-07-09T06:34:26.140Z,4.90
2018-07-09T06:36:54.536Z,4.90
2018-07-09T06:39:22.825Z,4.83
2018-07-09T06:41:51.256Z,4.80
2018-07-09T06:44:19.529Z,4.57
2018-07-09T06:46:47.809Z,5.03
2018-07-09T06:49:16.085Z,4.50
2018-07-09T06:51:44.337Z,4.93
2018-07-09T06:54:12.596Z,4.80
2018-07-09T06:56:40.844Z,5.13
2018-07-09T06:59:09.165Z,4.60
2018-07-09T07:01:37.392Z,4.70
2018-07-09T07:04:05.710Z,4.83
2018-07-09T07:06:33.975Z,4.77
2018-07-09T07:09:02.309Z,4.37
2018-07-09T07:11:30.534Z,4.40
2018-07-09T07:13:58.793Z,4.90
2018-07-09T07:16:27.048Z,4.70
2018-07-09T07:18:55.313Z,4.53
2018-07-09T07:21:23.599Z,4.27
2018-07-09T07:23:51.847Z,4.73
2018-07-09T07:26:20.114Z,4.33
2018-07-09T07:28:48.402Z,4.63
2018-07-09T07:31:16.691Z,4.57
2018-07-09T07:33:44.954Z,4.17
2018-07-09T07:36:13.226Z,4.50
2018-07-09T07:38:41.510Z,4.33
2018-07-09T07:41:09.824Z,4.73
2018-07-09T07:43:38.098Z,4.50
2018-07-09T07:46:06.369Z,4.90
2018-07-09T07:48:34.649Z,4.30
2018-07-09T07:51:02.953Z,4.60
2018-07-09T07:53:31.216Z,4.60
2018-07-09T07:55:59.551Z,4.67
2018-07-09T07:58:27.775Z,4.63
2018-07-09T08:00:56.132Z,4.50
2018-07-09T08:03:24.434Z,4.37
2018-07-09T08:05:52.721Z,4.53
2018-07-09T08:08:20.982Z,4.57
2018-07-09T08:10:49.432Z,4.50
2018-07-09T08:13:27.984Z,4.57
2018-07-09T08:15:46.103Z,4.67
2018-07-09T08:18:14.394Z,4.50
2018-07-09T08:20:42.664Z,4.20
2018-07-09T08:23:10.939Z,4.63
2018-07-09T08:25:39.791Z,4.23
2018-07-09T08:28:07.977Z,4.30
2018-07-09T08:30:36.230Z,4.10
2018-07-09T08:33:04.530Z,4.40
2018-07-09T08:35:32.747Z,3.60
2018-07-09T08:38:01.051Z,4.47
2018-07-09T08:40:29.313Z,4.30
2018-07-09T08:42:57.563Z,4.97
2018-07-09T08:45:25.818Z,4.43
2018-07-09T08:47:54.099Z,4.60
2018-07-09T08:50:22.378Z,4.10
2018-07-09T08:52:50.640Z,4.13
2018-07-09T08:55:18.933Z,3.60
2018-07-09T08:57:47.210Z,4.20
2018-07-09T09:00:15.472Z,4.17
2018-07-09T09:02:43.756Z,4.43
2018-07-09T09:05:12.035Z,3.80
2018-07-09T09:07:40.296Z,4.40
2018-07-09T09:10:08.635Z,4.10
2018-07-09T09:12:36.820Z,4.50
2018-07-09T09:15:05.084Z,3.87
2018-07-09T09:17:33.355Z,3.50
2018-07-09T09:20:01.621Z,3.90
2018-07-09T09:22:29.933Z,3.50
2018-07-09T09:24:58.179Z,4.10
2018-07-09T09:27:26.536Z,4.20
2018-07-09T09:29:55.008Z,4.20
2018-07-09T09:32:23.280Z,3.77
2018-07-09T09:34:51.569Z,3.80
2018-07-09T09:37:19.891Z,3.60
2018-07-09T09:39:48.111Z,3.70
2018-07-09T09:42:16.412Z,3.60
2018-07-09T09:44:44.675Z,4.00
2018-07-09T09:47:12.915Z,3.80
2018-07-09T09:49:41.193Z,4.13
2018-07-09T09:52:09.450Z,3.70
2018-07-09T09:54:37.728Z,3.90
2018-07-09T09:57:06.041Z,3.63
2018-07-09T09:59:34.321Z,3.50
2018-07-09T10:02:02.612Z,3.60
2018-07-09T10:04:31.311Z,4.20
2018-07-09T10:06:59.593Z,4.10
2018-07-09T10:09:27.851Z,4.13
2018-07-09T10:11:56.108Z,4.00
2018-07-09T10:14:24.380Z,3.83
2018-07-09T10:16:52.703Z,3.90
2018-07-09T10:19:20.922Z,3.97
2018-07-09T10:21:49.196Z,3.90
2018-07-09T10:24:17.524Z,3.83
2018-07-09T10:26:45.793Z,4.00
2018-07-09T10:29:14.048Z,4.50
2018-07-09T10:31:42.455Z,3.90
2018-07-09T10:34:10.915Z,3.60
2018-07-09T10:36:39.292Z,4.00
2018-07-09T10:39:07.705Z,3.53
2018-07-09T10:41:36.107Z,3.90
2018-07-09T10:44:04.463Z,3.70
2018-07-09T10:46:32.868Z,3.93
2018-07-09T10:49:01.212Z,4.00
2018-07-09T10:51:29.541Z,4.03
2018-07-09T10:53:58.053Z,3.77
2018-07-09T10:56:26.586Z,3.20
2018-07-09T10:58:54.968Z,3.60
2018-07-09T11:01:23.340Z,3.37
2018-07-09T11:03:51.663Z,3.07
2018-07-09T11:06:20.037Z,3.43
2018-07-09T11:08:48.437Z,3.93
2018-07-09T11:11:16.724Z,3.43
2018-07-09T11:13:44.975Z,3.40
2018-07-09T11:16:13.270Z,3.17
2018-07-09T11:18:41.728Z,3.70
2018-07-09T11:21:10.137Z,3.30
2018-07-09T11:23:38.408Z,3.70
2018-07-09T11:26:06.792Z,3.67
2018-07-09T11:28:35.055Z,3.13
2018-07-09T11:31:03.368Z,4.03
2018-07-09T11:33:31.645Z,3.93
2018-07-09T11:35:59.924Z,4.30
2018-07-09T11:38:28.216Z,4.30
2018-07-09T11:40:56.556Z,3.83
2018-07-09T11:43:24.827Z,4.07
2018-07-09T11:45:53.084Z,4.00
2018-07-09T11:48:21.319Z,3.90
2018-07-09T11:50:49.586Z,3.30
2018-07-09T11:53:17.871Z,3.73
2018-07-09T11:55:46.133Z,3.87
2018-07-09T11:58:14.369Z,3.40
2018-07-09T12:00:42.685Z,3.50
2018-07-09T12:03:10.961Z,3.50
2018-07-09T12:05:39.257Z,3.87
2018-07-09T12:08:07.521Z,3.80
2018-07-09T12:10:35.792Z,3.70
2018-07-09T12:13:04.104Z,3.90
2018-07-09T12:15:32.407Z,3.90
2018-07-09T12:18:00.676Z,4.00
2018-07-09T12:20:29.012Z,3.73
2018-07-09T12:22:57.270Z,3.70
2018-07-09T12:25:25.517Z,3.87
2018-07-09T12:27:53.780Z,3.93
2018-07-09T12:30:22.080Z,3.77
2018-07-09T12:32:50.342Z,4.00
2018-07-09T12:35:18.608Z,3.77
2018-07-09T12:37:47.064Z,4.00
2018-07-09T12:40:15.356Z,4.33
2018-07-09T12:42:43.609Z,4.23
2018-07-09T12:45:11.889Z,3.97
2018-07-09T12:47:40.280Z,3.83
2018-07-09T12:50:08.541Z,4.37
2018-07-09T12:52:36.785Z,3.83
2018-07-09T12:55:05.197Z,4.00
2018-07-09T12:57:33.477Z,3.87
2018-07-09T13:00:01.735Z,3.67
2018-07-09T13:02:29.974Z,3.50
2018-07-09T13:04:58.240Z,3.90
2018-07-09T13:07:26.504Z,3.63
2018-07-09T13:09:54.772Z,4.00
2018-07-09T13:12:28.865Z,4.20
2018-07-09T13:14:58.921Z,3.93
2018-07-09T13:17:27.185Z,4.10
2018-07-09T13:19:55.535Z,4.20
2018-07-09T13:22:23.939Z,4.20
2018-07-09T13:24:52.235Z,4.30
2018-07-09T13:27:20.496Z,3.90
2018-07-09T13:29:48.793Z,4.00
2018-07-09T13:32:17.072Z,3.93
2018-07-09T13:34:45.581Z,4.30
2018-07-09T13:37:13.884Z,3.70
2018-07-09T13:39:42.175Z,3.97
2018-07-09T13:42:10.450Z,3.90
2018-07-09T13:44:38.724Z,4.30
2018-07-09T13:47:06.988Z,4.20
2018-07-09T13:49:35.280Z,3.87
2018-07-09T13:52:04.381Z,3.70
2018-07-09T13:54:32.730Z,3.83
2018-07-09T13:57:01.064Z,3.73
2018-07-09T13:59:29.380Z,3.80
2018-07-09T14:01:57.739Z,3.90
2018-07-09T14:04:25.984Z,4.07
2018-07-09T14:06:54.584Z,4.03
2018-07-09T14:09:22.908Z,3.60
2018-07-09T14:11:51.166Z,4.10
2018-07-09T14:14:19.470Z,3.97
2018-07-09T14:16:47.728Z,3.80
2018-07-09T14:19:27.253Z,4.30
2018-07-09T14:21:55.496Z,4.00
2018-07-09T14:24:23.748Z,4.00
2018-07-09T14:26:52.024Z,4.30
2018-07-09T14:29:20.300Z,5.20
2018-07-09T14:31:48.573Z,4.20
2018-07-09T14:34:16.893Z,4.07
2018-07-09T14:36:45.139Z,3.80
2018-07-09T14:39:13.445Z,4.20
2018-07-09T14:41:41.706Z,3.63
2018-07-09T14:44:09.965Z,3.80
2018-07-09T14:46:38.216Z,4.07
2018-07-09T14:49:06.512Z,3.57
2018-07-09T14:51:34.777Z,3.87
2018-07-09T14:54:03.020Z,3.53
2018-07-09T14:56:31.274Z,3.67
2018-07-09T14:58:59.532Z,3.80
2018-07-09T15:01:27.790Z,3.63
2018-07-09T15:03:56.056Z,3.80
2018-07-09T15:06:24.332Z,3.77
2018-07-09T15:08:52.589Z,3.77
2018-07-09T15:11:20.831Z,3.80
2018-07-09T15:13:49.148Z,3.90
2018-07-09T15:16:17.395Z,3.40
2018-07-09T15:18:45.660Z,3.70
2018-07-09T15:21:13.915Z,3.40
2018-07-09T15:23:42.196Z,3.50
2018-07-09T15:26:10.444Z,3.37
2018-07-09T15:28:38.699Z,3.70
2018-07-09T15:31:07.001Z,3.47
2018-07-09T15:33:35.259Z,3.43
2018-07-09T15:36:03.596Z,3.60
2018-07-09T15:38:31.788Z,3.80
2018-07-09T15:41:00.065Z,3.47
2018-07-09T15:43:41.141Z,3.53
2018-07-09T15:46:09.407Z,3.60
2018-07-09T15:48:37.673Z,3.40
2018-07-09T15:51:05.958Z,3.53
2018-07-09T15:53:34.218Z,3.43
2018-07-09T15:56:02.468Z,4.00
2018-07-09T15:58:30.748Z,3.80
2018-07-09T16:00:59.106Z,3.47
2018-07-09T16:03:27.371Z,3.70
2018-07-09T16:05:55.629Z,3.70
2018-07-09T16:08:23.904Z,4.05
2018-07-09T16:10:52.165Z,3.70
2018-07-09T16:13:20.409Z,4.33
2018-07-09T16:15:48.676Z,3.75
2018-07-09T16:18:16.924Z,3.83
2018-07-09T16:20:45.208Z,4.12
2018-07-09T16:23:13.487Z,3.80
2018-07-09T16:25:41.780Z,4.00
2018-07-09T16:30:44.622Z,4.30
2018-07-09T16:33:12.887Z,3.98
2018-07-09T16:35:41.163Z,4.12
2018-07-09T16:38:09.403Z,3.85
2018-07-09T16:40:37.680Z,4.25
2018-07-09T16:43:07.001Z,3.92
2018-07-09T16:45:35.293Z,4.22
2018-07-09T16:48:03.604Z,3.62
2018-07-09T16:50:31.883Z,4.08
2018-07-09T16:53:00.154Z,3.37
2018-07-09T16:55:28.432Z,3.95
2018-07-09T16:57:56.714Z,3.70
2018-07-09T17:00:25.036Z,3.70
2018-07-09T17:02:53.328Z,3.75
2018-07-09T17:05:21.584Z,3.62
2018-07-09T17:07:49.934Z,3.77
2018-07-09T17:10:18.195Z,3.62
2018-07-09T17:12:46.463Z,4.10
2018-07-09T17:15:14.712Z,3.72
2018-07-09T17:17:42.960Z,3.75
2018-07-09T17:20:11.312Z,3.65
2018-07-09T17:22:39.566Z,3.90
2018-07-09T17:25:07.856Z,4.05
2018-07-09T17:27:36.236Z,3.83
2018-07-09T17:30:04.553Z,4.00
2018-07-09T17:32:32.873Z,4.10
2018-07-09T17:35:01.078Z,3.92
2018-07-09T17:37:29.405Z,4.05
2018-07-09T17:39:57.672Z,3.90
2018-07-09T17:42:25.927Z,4.28
2018-07-09T17:44:54.181Z,3.90
2018-07-09T17:47:22.488Z,4.35
2018-07-09T17:49:50.977Z,4.05
2018-07-09T17:52:19.180Z,4.03
2018-07-09T17:54:47.432Z,4.00
2018-07-09T17:57:15.684Z,4.00
2018-07-09T17:59:43.936Z,4.20
2018-07-09T18:02:12.244Z,3.70
2018-07-09T18:04:40.512Z,3.70
2018-07-09T18:07:08.784Z,3.67
2018-07-09T18:09:37.073Z,3.93
2018-07-09T18:12:05.365Z,4.17
2018-07-09T18:14:33.648Z,3.90
2018-07-09T18:17:01.896Z,3.90
2018-07-09T18:19:30.187Z,3.70
2018-07-09T18:21:58.444Z,3.97
2018-07-09T18:24:26.701Z,4.00
2018-07-09T18:26:54.969Z,3.80
2018-07-09T18:29:23.220Z,3.90
2018-07-09T18:31:51.503Z,3.80
2018-07-09T18:34:19.784Z,3.73
2018-07-09T18:36:48.072Z,4.10
2018-07-09T18:39:16.336Z,4.03
2018-07-09T18:41:44.608Z,4.17
2018-07-09T18:44:12.852Z,4.33
2018-07-09T18:46:41.117Z,5.10
2018-07-09T18:49:09.373Z,14.87
2018-07-09T18:51:37.619Z,13.87
2018-07-09T18:54:05.911Z,4.23
2018-07-09T18:56:34.188Z,3.97
2018-07-09T18:59:02.477Z,4.17
2018-07-09T19:01:30.720Z,4.70
2018-07-09T19:03:58.996Z,4.30
2018-07-09T19:06:42.229Z,4.80
2018-07-09T19:09:10.525Z,5.10
2018-07-09T19:11:38.929Z,4.53
2018-07-09T19:14:07.465Z,4.50
2018-07-09T19:16:45.629Z,4.40
2018-07-09T19:19:25.156Z,4.73
2018-07-09T19:21:59.530Z,4.30
2018-07-09T19:24:26.741Z,5.57
2018-07-09T19:26:54.238Z,7.60
2018-07-09T19:29:21.451Z,5.70
2018-07-09T19:31:48.689Z,5.87
2018-07-09T19:34:15.909Z,5.40
2018-07-09T19:36:43.183Z,5.50
2018-07-09T19:39:11.172Z,5.80
2018-07-09T19:41:38.429Z,5.00
2018-07-09T19:44:05.641Z,4.90
2018-07-09T19:46:32.854Z,5.23
2018-07-09T19:49:00.097Z,5.40
2018-07-09T19:51:27.309Z,4.90
2018-07-09T19:53:54.530Z,4.50
2018-07-09T19:56:21.753Z,4.87
2018-07-09T19:58:49.050Z,5.00
2018-07-09T20:01:16.260Z,5.10
2018-07-09T20:03:43.471Z,5.27
2018-07-09T20:06:10.685Z,5.50
2018-07-09T20:08:43.310Z,5.80
2018-07-09T20:11:15.751Z,4.93
2018-07-09T20:13:51.076Z,4.90
2018-07-09T20:16:23.678Z,5.47
2018-07-09T20:18:52.479Z,5.60
2018-07-09T20:21:20.047Z,5.20
2018-07-09T20:23:47.289Z,5.03
2018-07-09T20:26:14.508Z,4.53
2018-07-09T20:28:41.744Z,6.63
2018-07-09T20:31:08.964Z,5.60
2018-07-09T20:33:36.171Z,5.50
2018-07-09T20:36:03.458Z,5.57
2018-07-09T20:38:30.742Z,5.47
2018-07-09T20:40:57.969Z,5.37
2018-07-09T20:43:25.163Z,5.43
2018-07-09T20:45:52.429Z,5.50
2018-07-09T20:48:19.640Z,6.13
2018-07-09T20:50:46.971Z,6.37
2018-07-09T20:53:14.185Z,6.07
2018-07-09T20:55:41.412Z,6.00
2018-07-09T20:58:08.640Z,6.07
2018-07-09T21:00:35.853Z,6.20
2018-07-09T21:03:03.060Z,6.23
2018-07-09T21:05:30.277Z,6.40
2018-07-09T21:07:57.491Z,6.10
2018-07-09T21:10:24.688Z,6.40
2018-07-09T21:12:55.796Z,6.37
2018-07-09T21:15:23.706Z,6.33
2018-07-09T21:17:50.720Z,6.40
2018-07-09T21:20:18.396Z,6.37
2018-07-09T21:22:45.920Z,6.23
2018-07-09T21:25:13.312Z,6.47
2018-07-09T21:27:40.836Z,6.33
2018-07-09T21:30:08.058Z,6.37
2018-07-09T21:32:35.280Z,6.33
2018-07-09T21:35:02.590Z,6.20
2018-07-09T21:37:29.910Z,6.37
2018-07-09T21:39:57.016Z,6.30
2018-07-09T21:42:24.252Z,6.13
2018-07-09T21:44:51.460Z,6.07
2018-07-09T21:47:18.668Z,6.10
2018-07-09T21:49:45.880Z,6.00
2018-07-09T21:52:13.131Z,5.80
2018-07-09T21:54:40.339Z,5.67
2018-07-09T21:57:07.556Z,6.23
2018-07-09T21:59:34.767Z,6.40
2018-07-09T22:02:02.144Z,6.20
2018-07-09T22:04:29.370Z,6.30
2018-07-09T22:06:56.592Z,6.43
2018-07-09T22:09:23.805Z,6.10
2018-07-09T22:11:51.019Z,6.20
2018-07-09T22:14:18.228Z,5.90
2018-07-09T22:16:45.445Z,5.50
2018-07-09T22:19:12.684Z,5.83
2018-07-09T22:21:39.912Z,5.53
2018-07-09T22:24:07.128Z,6.07
2018-07-09T22:26:34.345Z,6.10
2018-07-09T22:29:01.611Z,6.13
2018-07-09T22:31:29.856Z,5.93
2018-07-09T22:33:58.108Z,6.20
2018-07-09T22:36:26.375Z,6.10
2018-07-09T22:38:54.672Z,6.70
2018-07-09T22:41:22.925Z,6.30
2018-07-09T22:44:02.483Z,6.50
2018-07-09T22:46:30.758Z,6.40
2018-07-09T22:48:59.029Z,6.27
2018-07-09T22:51:27.284Z,6.07
2018-07-09T22:53:55.532Z,7.17
2018-07-09T22:56:23.780Z,7.00
2018-07-09T22:58:52.112Z,6.80
2018-07-09T23:01:20.374Z,6.03
2018-07-09T23:03:48.661Z,6.30
2018-07-09T23:06:16.936Z,6.30
2018-07-09T23:08:45.238Z,6.20
2018-07-09T23:13:33.327Z,6.90
2018-07-09T23:18:14.610Z,6.47
2018-07-09T23:20:54.081Z,6.40
2018-07-09T23:23:21.288Z,6.40
2018-07-09T23:25:48.508Z,6.63
2018-07-09T23:28:15.744Z,6.83
2018-07-09T23:30:42.962Z,6.83
2018-07-09T23:33:10.173Z,6.70
2018-07-09T23:35:37.376Z,6.30
2018-07-09T23:38:04.597Z,6.43
2018-07-09T23:40:31.810Z,6.23
2018-07-09T23:42:59.020Z,6.40
2018-07-09T23:45:26.233Z,6.57
2018-07-09T23:47:53.445Z,6.70
2018-07-09T23:50:20.670Z,6.87
2018-07-09T23:52:47.882Z,6.77
2018-07-09T23:55:15.122Z,6.60
